This is the latest recevied weather packets stored in our database for station/object VA3ZFM-10. If no packets are shown the sender has not sent any weather packets the latest 10 day(s).
| Time | Temp. | Humidity | Pressure | Rain* | Wind** | Luminosity | Snow |
|---|---|---|---|---|---|---|---|
| 1778178687 | 9.44° C | 38% | 1007.9 hPa | 0 mm | - | - | - |
| 1778178383 | 10° C | 36% | 1007.9 hPa | 0 mm | - | - | - |
| 1778178079 | 10.56° C | 35% | 1008.1 hPa | 0 mm | - | - | - |
| 1778177776 | 10.56° C | 37% | 1008.1 hPa | 0 mm | - | - | - |
| 1778177473 | 10.56° C | 37% | 1007.9 hPa | 0 mm | - | - | - |
| 1778177169 | 9.44° C | 38% | 1008 hPa | 0 mm | - | - | - |
| 1778176867 | 8.89° C | 39% | 1008.1 hPa | 0 mm | - | - | - |
| 1778176562 | 9.44° C | 38% | 1008.2 hPa | 0 mm | - | - | - |
| 1778176260 | 8.33° C | 41% | 1008.1 hPa | 0 mm | - | - | - |
| 1778175957 | 9.44° C | 39% | 1008.3 hPa | 0 mm | - | - | - |
| 1778175654 | 9.44° C | 39% | 1008.3 hPa | 0 mm | - | - | - |
| 1778175351 | 9.44° C | 38% | 1008.2 hPa | 0 mm | - | - | - |
| 1778175049 | 10° C | 39% | 1008.4 hPa | 0 mm | - | - | - |
| 1778174744 | 10° C | 39% | 1008.3 hPa | 0 mm | - | - | - |
| 1778174442 | 9.44° C | 38% | 1008.5 hPa | 0 mm | - | - | - |
| 1778174136 | 9.44° C | 39% | 1008.3 hPa | 0 mm | - | - | - |
| 1778173834 | 9.44° C | 39% | 1008.3 hPa | 0 mm | - | - | - |
| 1778173530 | 9.44° C | 39% | 1008.4 hPa | 0 mm | - | - | - |
| 1778173228 | 8.33° C | 40% | 1008.5 hPa | 0 mm | - | - | - |
| 1778172923 | 8.33° C | 40% | 1008.4 hPa | 0 mm | - | - | - |
| 1778172620 | 8.89° C | 40% | 1008.7 hPa | 0 mm | - | - | - |
| 1778172316 | 9.44° C | 39% | 1008.5 hPa | 0 mm | - | - | - |
| 1778172014 | 8.33° C | 39% | 1008.6 hPa | 0 mm | - | - | - |
| 1778171710 | 8.33° C | 41% | 1008.7 hPa | 0 mm | - | - | - |
| 1778171409 | 8.33° C | 41% | 1008.8 hPa | 0 mm | - | - | - |
* Rain latest hour (hover to see other rain measurements)
** Current wind speed in m/s (hover to see current wind gust speed)